Hubbard Lake, Michigan
Current Conditions -  °F | °C
As of 3:54 PM on Monday 22 Dec 2014 (Local Time) from KAPN Reporting Station
Overcast Overcast  
Wind Chill: 26°   Ceiling: 2400
Heat Index: 33°   Visibility: 10mi
Dew Point: 27°   Wind: 8mph
Humidity: 78%   Direction: 130°SE
Pressure: 30"   Gusts: NA
Location:  44.87°N, 83.59°W
Report Text: KAPN 222054Z AUTO 13007KT 10SM OVC024 01/M03 A3000 RMK AO2 SLP168 T00061028 56013
Loading
Personal Weather Stations






























Interactive Weather Map New forecast layout! Learn more

10-Day Weather Forecast

Advertisements
Track Severe Weather on mobile